< < Back
Terminal Aerodrome Forecast


Current Version              Previous Versions:   1  2  3  4  5  6  7  8  9  

Terminal Aerodrome Forecast

518
FTUS42 KTAE 300520
TAFVLD
TAF
KVLD 300520Z 3006/3106 00000KT P6SM SKC
     FM301400 22005KT P6SM SCT050=

Latest METAR

850
SAUS70 KWBC 300500 RRM
MTRVLD
METAR KVLD 300453Z AUTO 00000KT 10SM CLR 24/23 A3002 RMK AO2 SLP171
T02440233 403560228


USA.gov is the U.S. government's official web portal to all federal, state and local government web resources and services.